Terminal Aerodrome Forecast
Issued by NWS

Home | Current Version | Previous Version | Text Only | Print | Product List | Glossary On
Versions: 1 2 3 4 5 6 7 8 9 10 11 12 13 14 15 16 17 18 19 20 21 22 23 24
000
FTUS45 KGJT 220540
TAFEGE
TAF
KEGE 220540Z 2206/2306 00000KT P6SM SCT250
     FM221200 VRB03KT P6SM BKN120
     FM221700 25005KT P6SM SCT080 OVC110
     FM222100 25010G18KT P6SM VCSH SCT080 OVC100
     FM230100 25010KT 4SM -SN BR OVC035
      AMD LTD TO CLD VIS AND WIND TIL 221300=

USA.gov is the U.S. government's official web portal to all federal, state and local government web resources and services.